Time;durP1;ratioP1;P1;durP2;ratioP2;P2;SDS_P1;SDS_P2;PMS_P1;PMS_P2;Temp;Humidity;BMP_temperature;BMP_pressure;BME280_temperature;BME280_humidity;BME280_pressure;Samples;Min_cycle;Max_cycle;Signal;HPM_P1;HPM_P2
2022/10/04 00:01:45;;;;;;;1.90;1.23;;;13.40;99.90;;;;;;5043043;28;20090;-73
2022/10/04 00:04:20;;;;;;;3.03;0.93;;;13.50;99.90;;;;;;5037786;28;20096;-73
2022/10/04 00:06:53;;;;;;;2.60;1.10;;;13.40;99.90;;;;;;5040076;28;20475;-74
2022/10/04 00:09:23;;;;;;;2.30;0.88;;;13.30;99.90;;;;;;5037819;28;20040;-73
2022/10/04 00:11:51;;;;;;;2.40;0.98;;;13.30;99.90;;;;;;5041239;28;20041;-73
2022/10/04 00:14:36;;;;;;;2.95;0.70;;;13.40;99.90;;;;;;5044469;28;20501;-73
2022/10/04 00:17:09;;;;;;;3.85;1.13;;;13.40;99.90;;;;;;5044980;28;20033;-73
2022/10/04 00:19:40;;;;;;;6.95;1.08;;;13.40;99.90;;;;;;5045153;28;20412;-73
2022/10/04 00:22:09;;;;;;;4.40;1.67;;;13.40;99.90;;;;;;5041198;28;20021;-73
2022/10/04 00:24:35;;;;;;;5.38;1.70;;;13.40;99.90;;;;;;5050167;28;20099;-73
2022/10/04 00:27:09;;;;;;;2.00;0.98;;;13.40;99.90;;;;;;5049070;28;20028;-73
2022/10/04 00:29:37;;;;;;;4.82;1.52;;;13.40;99.90;;;;;;5042407;28;20033;-73
2022/10/04 00:32:09;;;;;;;2.85;1.13;;;13.30;99.90;;;;;;5037812;28;20036;-73
2022/10/04 00:34:34;;;;;;;5.22;1.15;;;13.30;99.90;;;;;;5047574;28;20039;-73
2022/10/04 00:37:00;;;;;;;3.80;1.50;;;13.40;99.90;;;;;;5045833;28;20037;-73
2022/10/04 00:39:32;;;;;;;4.22;1.10;;;13.40;99.90;;;;;;5045323;28;20029;-74
2022/10/04 00:42:05;;;;;;;;;;;13.40;99.90;;;;;;5047630;28;20028;-73
2022/10/04 00:44:42;;;;;;;9.32;1.50;;;13.40;99.90;;;;;;5046695;28;19908;-73
2022/10/04 00:47:30;;;;;;;1.63;0.93;;;13.40;99.90;;;;;;5039530;28;20031;-73
2022/10/04 00:50:14;;;;;;;4.25;1.13;;;13.30;99.90;;;;;;5046475;28;20032;-73
2022/10/04 00:52:56;;;;;;;3.53;1.50;;;13.40;99.90;;;;;;5044040;28;20017;-73
2022/10/04 00:55:32;;;;;;;2.28;1.05;;;13.30;99.90;;;;;;5046876;28;20025;-73
2022/10/04 00:57:59;;;;;;;3.53;1.30;;;13.30;99.90;;;;;;5041815;28;20033;-73
2022/10/04 01:00:26;;;;;;;4.93;1.42;;;13.20;99.90;;;;;;5047460;28;20017;-72
2022/10/04 01:03:09;;;;;;;4.00;1.05;;;13.20;99.90;;;;;;5035897;28;20033;-73
2022/10/04 01:05:45;;;;;;;10.57;1.52;;;13.30;99.90;;;;;;5046809;28;20021;-72
2022/10/04 01:08:14;;;;;;;6.95;1.77;;;13.30;99.90;;;;;;5049987;28;20041;-72
2022/10/04 01:10:48;;;;;;;3.20;1.20;;;13.20;99.90;;;;;;5042224;28;20040;-73
2022/10/04 01:13:35;;;;;;;5.20;1.42;;;13.00;99.90;;;;;;5044399;28;20484;-72
2022/10/04 01:16:24;;;;;;;2.42;1.40;;;13.00;99.90;;;;;;5047880;28;20029;-72
2022/10/04 01:18:50;;;;;;;2.92;0.93;;;12.80;99.90;;;;;;5039741;28;20086;-73
2022/10/04 01:21:18;;;;;;;4.40;1.13;;;12.80;99.90;;;;;;5041531;28;20029;-74
2022/10/04 01:24:07;;;;;;;2.33;1.02;;;12.80;99.90;;;;;;5042487;28;20024;-73
2022/10/04 01:26:35;;;;;;;6.07;1.85;;;12.90;99.90;;;;;;5045103;28;20579;-73
2022/10/04 01:29:14;;;;;;;2.83;1.73;;;12.90;99.90;;;;;;5048245;28;20025;-73
2022/10/04 01:31:42;;;;;;;4.43;1.17;;;13.10;99.90;;;;;;5038988;28;20042;-73
2022/10/04 01:34:12;;;;;;;1.33;0.98;;;13.00;99.90;;;;;;5044163;28;20029;-73
2022/10/04 01:36:37;;;;;;;5.60;1.15;;;13.00;99.90;;;;;;5046299;28;20123;-73
2022/10/04 01:39:04;;;;;;;4.18;0.88;;;13.10;99.90;;;;;;5035579;28;20029;-73
2022/10/04 01:41:44;;;;;;;4.90;1.50;;;13.00;99.90;;;;;;5050357;28;20031;-73
2022/10/04 01:44:26;;;;;;;7.55;1.20;;;13.00;99.90;;;;;;5037810;28;20131;-73
2022/10/04 01:46:55;;;;;;;2.15;1.08;;;13.00;99.90;;;;;;5048801;28;20025;-73
2022/10/04 01:49:25;;;;;;;6.65;1.30;;;13.00;99.90;;;;;;5047124;28;20033;-75
2022/10/04 01:52:06;;;;;;;7.15;1.23;;;13.00;99.90;;;;;;5046322;28;20577;-73
2022/10/04 01:54:41;;;;;;;2.67;1.35;;;13.00;99.90;;;;;;5045180;28;20102;-73
2022/10/04 01:57:14;;;;;;;6.53;1.38;;;13.00;99.90;;;;;;5042256;28;20496;-73
2022/10/04 01:59:51;;;;;;;2.88;1.17;;;13.00;99.90;;;;;;5037517;28;20039;-73
2022/10/04 02:02:50;;;;;;;3.72;1.10;;;12.90;99.90;;;;;;5039289;28;20614;-73
2022/10/04 02:05:23;;;;;;;3.65;1.00;;;13.00;99.90;;;;;;5046279;28;20040;-73
2022/10/04 02:07:49;;;;;;;5.72;1.42;;;12.90;99.90;;;;;;5038691;28;20387;-73
2022/10/04 02:10:19;;;;;;;3.13;1.10;;;12.90;99.90;;;;;;5042678;28;20043;-73
2022/10/04 02:12:48;;;;;;;2.30;1.02;;;12.80;99.90;;;;;;5041484;28;20036;-73
2022/10/04 02:15:14;;;;;;;9.50;1.35;;;12.80;99.90;;;;;;5047423;28;20021;-73
2022/10/04 02:17:42;;;;;;;5.63;1.30;;;12.80;99.90;;;;;;5047764;28;20036;-73
2022/10/04 02:20:16;;;;;;;2.05;0.95;;;12.80;99.90;;;;;;5045914;28;20045;-73
2022/10/04 02:22:44;;;;;;;7.65;1.60;;;12.70;99.90;;;;;;5044041;28;20438;-73
2022/10/04 02:25:12;;;;;;;3.33;1.35;;;12.50;99.90;;;;;;5046060;28;20159;-72
2022/10/04 02:27:37;;;;;;;2.38;1.10;;;12.50;99.90;;;;;;5034116;28;20021;-73
2022/10/04 02:30:07;;;;;;;3.55;1.13;;;12.40;99.90;;;;;;5043517;28;20098;-73
2022/10/04 02:35:18;;;;;;;3.35;1.60;;;12.20;99.90;;;;;;5039613;28;20393;-73
2022/10/04 02:37:50;;;;;;;2.13;0.90;;;12.20;99.90;;;;;;5044862;28;20053;-73
2022/10/04 02:40:18;;;;;;;5.82;1.20;;;12.20;99.90;;;;;;5046813;28;20519;-73
2022/10/04 02:42:56;;;;;;;3.20;1.08;;;12.30;99.90;;;;;;5041263;28;20033;-72
2022/10/04 02:45:47;;;;;;;2.53;0.98;;;12.30;99.90;;;;;;5037868;28;20028;-72
2022/10/04 02:48:25;;;;;;;1.73;1.20;;;12.30;99.90;;;;;;5037726;28;20056;-72
2022/10/04 02:50:53;;;;;;;3.42;1.05;;;12.30;99.90;;;;;;5034086;28;20458;-73
2022/10/04 02:53:38;;;;;;;8.32;1.02;;;12.10;99.90;;;;;;5043747;28;20017;-73
2022/10/04 02:56:04;;;;;;;3.53;1.17;;;12.00;99.90;;;;;;5042717;28;20392;-73
2022/10/04 02:58:31;;;;;;;1.42;0.75;;;11.90;99.90;;;;;;5044831;28;20021;-73
2022/10/04 03:00:59;;;;;;;7.18;1.05;;;11.90;99.90;;;;;;5044052;28;20147;-73
2022/10/04 03:03:30;;;;;;;3.05;1.77;;;11.80;99.90;;;;;;5046412;28;20095;-73
2022/10/04 03:06:11;;;;;;;5.05;1.00;;;11.80;99.90;;;;;;5034216;28;20078;-73
2022/10/04 03:08:50;;;;;;;6.20;1.00;;;11.70;99.90;;;;;;5046146;28;20094;-73
2022/10/04 03:11:18;;;;;;;0.82;0.80;;;11.60;99.90;;;;;;5040092;28;20032;-73
2022/10/04 03:13:46;;;;;;;3.30;1.33;;;11.60;99.90;;;;;;5041039;28;20026;-72
2022/10/04 03:16:13;;;;;;;4.65;1.17;;;11.50;99.90;;;;;;5041969;28;20025;-74
2022/10/04 03:18:39;;;;;;;3.65;1.48;;;11.50;99.90;;;;;;5033277;28;20037;-71
2022/10/04 03:21:07;;;;;;;4.10;1.00;;;11.40;99.90;;;;;;5043208;28;20025;-71
2022/10/04 03:23:33;;;;;;;5.72;1.35;;;11.30;99.90;;;;;;5043514;28;20032;-70
2022/10/04 03:26:37;;;;;;;3.40;1.17;;;11.20;99.90;;;;;;5044929;28;20500;-71
2022/10/04 03:29:09;;;;;;;2.33;1.10;;;11.10;99.90;;;;;;5036444;28;20033;-70
2022/10/04 03:31:39;;;;;;;4.53;1.23;;;11.10;99.90;;;;;;5042590;28;20052;-72
2022/10/04 03:34:05;;;;;;;2.35;1.17;;;11.20;99.90;;;;;;5037478;28;20037;-72
2022/10/04 03:36:30;;;;;;;4.55;1.02;;;11.20;99.90;;;;;;5037125;28;20110;-72
2022/10/04 03:38:57;;;;;;;2.42;1.10;;;11.10;99.90;;;;;;5039641;28;20021;-72
2022/10/04 03:41:24;;;;;;;3.58;1.38;;;11.10;99.90;;;;;;5042725;28;20021;-71
2022/10/04 03:43:52;;;;;;;5.65;1.40;;;11.00;99.90;;;;;;5023440;28;20063;-71
2022/10/04 03:46:21;;;;;;;3.50;1.25;;;11.00;99.90;;;;;;5033257;28;20112;-71
2022/10/04 03:48:49;;;;;;;1.77;1.25;;;11.10;99.90;;;;;;5035201;28;20033;-71
2022/10/04 03:51:19;;;;;;;2.90;1.10;;;11.10;99.90;;;;;;5033814;28;20041;-72
2022/10/04 03:53:48;;;;;;;2.35;1.27;;;11.20;99.90;;;;;;5039053;28;20025;-71
2022/10/04 03:56:32;;;;;;;9.18;1.27;;;11.30;99.90;;;;;;5038943;28;20045;-71
2022/10/04 03:58:58;;;;;;;3.50;1.20;;;11.50;99.90;;;;;;5038482;28;20082;-72
2022/10/04 04:01:48;;;;;;;5.85;1.30;;;11.60;99.90;;;;;;5038606;28;20076;-72
2022/10/04 04:04:33;;;;;;;8.02;1.50;;;11.70;99.90;;;;;;5037345;28;20380;-71
2022/10/04 04:07:11;;;;;;;5.50;1.40;;;11.80;99.90;;;;;;5038948;28;20052;-71
2022/10/04 04:09:52;;;;;;;4.80;1.20;;;11.60;99.90;;;;;;5036593;28;20032;-71
2022/10/04 04:12:24;;;;;;;7.10;1.30;;;11.40;99.90;;;;;;5039054;28;20032;-72
2022/10/04 04:14:50;;;;;;;;;;;11.30;99.90;;;;;;5039617;28;20060;-71
2022/10/04 04:17:24;;;;;;;3.15;1.50;;;11.20;99.90;;;;;;5037672;28;19986;-71
2022/10/04 04:19:50;;;;;;;7.15;1.75;;;11.20;99.90;;;;;;5038288;28;20029;-71
2022/10/04 04:22:17;;;;;;;6.35;1.77;;;11.10;99.90;;;;;;5037460;28;20438;-71
2022/10/04 04:24:44;;;;;;;8.95;1.75;;;11.10;99.90;;;;;;5039249;28;20025;-72
2022/10/04 04:27:10;;;;;;;8.10;1.25;;;11.00;99.90;;;;;;5038750;28;20373;-71
2022/10/04 04:29:49;;;;;;;1.25;0.90;;;11.00;99.90;;;;;;5038273;28;20519;-72
2022/10/04 04:32:30;;;;;;;6.32;1.40;;;10.90;99.90;;;;;;5038600;28;20033;-72
2022/10/04 04:35:06;;;;;;;4.25;1.38;;;10.80;99.90;;;;;;5038711;28;20021;-72
2022/10/04 04:37:37;;;;;;;8.55;1.27;;;10.80;99.90;;;;;;5038024;28;20036;-72
2022/10/04 04:40:21;;;;;;;2.03;1.15;;;10.70;99.90;;;;;;5037018;28;20075;-71
2022/10/04 04:42:48;;;;;;;2.13;1.27;;;10.80;99.90;;;;;;5038011;28;20021;-72
2022/10/04 04:45:21;;;;;;;3.17;1.98;;;10.80;99.90;;;;;;5035101;28;20617;-72
2022/10/04 04:47:49;;;;;;;2.05;1.50;;;10.80;99.90;;;;;;5037322;28;20067;-71
2022/10/04 04:50:14;;;;;;;2.05;1.33;;;10.80;99.90;;;;;;5046212;28;20035;-70
2022/10/04 04:52:43;;;;;;;3.85;1.35;;;10.90;99.90;;;;;;5040492;28;20029;-70
2022/10/04 04:55:18;;;;;;;2.00;1.38;;;10.80;99.90;;;;;;5038143;28;20127;-69
2022/10/04 04:57:46;;;;;;;8.55;1.65;;;10.70;99.90;;;;;;5040776;28;20052;-70
2022/10/04 05:00:24;;;;;;;3.47;1.65;;;10.70;99.90;;;;;;5030325;28;20113;-70
2022/10/04 05:02:56;;;;;;;4.22;1.48;;;10.70;99.90;;;;;;5047531;28;20115;-70
2022/10/04 05:05:23;;;;;;;;;;;10.70;99.90;;;;;;5041441;28;20021;-70
2022/10/04 05:08:01;;;;;;;2.78;1.45;;;10.70;99.90;;;;;;5044176;28;19912;-73
2022/10/04 05:10:33;;;;;;;6.65;1.77;;;10.70;99.90;;;;;;5047814;28;20029;-71
2022/10/04 05:13:00;;;;;;;10.93;1.90;;;10.80;99.90;;;;;;5039396;28;20033;-71
2022/10/04 05:15:39;;;;;;;7.95;1.52;;;11.00;99.90;;;;;;5038890;28;20112;-70
2022/10/04 05:18:33;;;;;;;8.48;1.58;;;11.10;99.90;;;;;;5041571;28;20498;-69
2022/10/04 05:21:12;;;;;;;7.35;1.52;;;11.10;99.90;;;;;;5032390;28;20128;-70
2022/10/04 05:23:37;;;;;;;3.78;2.25;;;11.10;99.90;;;;;;5048493;28;20071;-70
2022/10/04 05:26:08;;;;;;;4.45;2.03;;;11.10;99.90;;;;;;5039071;28;20223;-69
2022/10/04 05:28:34;;;;;;;6.28;1.42;;;11.20;99.90;;;;;;5039397;28;20095;-71
2022/10/04 05:31:18;;;;;;;5.45;1.38;;;11.20;99.90;;;;;;5046225;28;20699;-70
2022/10/04 05:33:50;;;;;;;5.95;1.80;;;11.30;99.90;;;;;;5046119;28;20021;-71
2022/10/04 05:36:46;;;;;;;4.22;1.63;;;11.50;99.90;;;;;;5048123;28;20033;-71
2022/10/04 05:39:24;;;;;;;3.75;1.30;;;11.50;99.90;;;;;;5047008;28;20111;-71
2022/10/04 05:42:20;;;;;;;6.05;2.25;;;11.60;99.90;;;;;;5029364;28;20109;-71
2022/10/04 05:44:53;;;;;;;2.30;1.60;;;11.50;99.90;;;;;;5028854;28;20025;-71
2022/10/04 05:47:25;;;;;;;4.35;1.50;;;11.50;99.90;;;;;;5046471;28;20035;-71
2022/10/04 05:49:54;;;;;;;3.58;1.25;;;11.50;99.90;;;;;;5047795;28;20036;-72
2022/10/04 05:52:37;;;;;;;3.53;1.60;;;11.50;99.90;;;;;;5044589;28;20040;-72
2022/10/04 05:55:16;;;;;;;6.47;1.23;;;11.60;99.90;;;;;;5042010;28;20033;-71
2022/10/04 05:57:55;;;;;;;5.63;1.55;;;11.70;99.90;;;;;;5030464;28;20033;-72
2022/10/04 06:00:26;;;;;;;1.52;1.27;;;11.80;99.90;;;;;;5042010;28;20416;-71
2022/10/04 06:03:10;;;;;;;1.73;1.17;;;11.80;99.90;;;;;;5033236;28;20434;-71
2022/10/04 06:06:00;;;;;;;6.40;2.20;;;11.90;99.90;;;;;;5040570;28;20067;-71
2022/10/04 06:08:42;;;;;;;2.92;1.65;;;11.90;99.90;;;;;;5029487;28;20032;-72
2022/10/04 06:11:33;;;;;;;3.55;1.25;;;11.90;99.90;;;;;;5046805;28;20078;-70
2022/10/04 06:14:21;;;;;;;4.45;1.60;;;12.10;99.90;;;;;;5046972;28;20081;-75
2022/10/04 06:17:10;;;;;;;4.97;1.40;;;12.20;99.90;;;;;;5036209;28;20104;-73
2022/10/04 06:20:03;;;;;;;6.07;1.42;;;12.20;99.90;;;;;;5032596;28;20040;-72
2022/10/04 06:22:29;;;;;;;5.70;1.40;;;12.30;99.90;;;;;;5031982;28;20029;-73
2022/10/04 06:25:09;;;;;;;2.05;1.20;;;12.40;99.90;;;;;;5043214;28;20033;-73
2022/10/04 06:27:56;;;;;;;4.47;1.52;;;12.50;99.90;;;;;;5045560;28;20028;-73
2022/10/04 06:30:21;;;;;;;3.08;1.30;;;12.70;99.90;;;;;;5046162;28;20583;-73
2022/10/04 06:33:13;;;;;;;2.85;1.30;;;12.70;99.90;;;;;;5034114;28;20155;-73
2022/10/04 06:35:56;;;;;;;4.65;1.05;;;12.80;99.90;;;;;;5039921;28;20035;-74
2022/10/04 06:38:45;;;;;;;2.80;1.13;;;12.90;99.90;;;;;;5040221;28;20503;-74
2022/10/04 06:41:30;;;;;;;5.95;1.40;;;13.10;99.90;;;;;;5043734;28;20649;-73
2022/10/04 06:44:26;;;;;;;2.03;0.98;;;13.20;99.90;;;;;;5035106;28;20025;-74
2022/10/04 06:47:22;;;;;;;2.88;1.48;;;13.10;99.90;;;;;;5047951;28;20544;-74
2022/10/04 06:50:29;;;;;;;2.90;1.27;;;13.20;99.90;;;;;;5038198;28;20087;-74
2022/10/04 06:53:26;;;;;;;2.78;1.02;;;13.20;99.90;;;;;;5031194;28;20021;-74
2022/10/04 06:56:11;;;;;;;5.22;1.83;;;13.20;99.90;;;;;;5045091;28;20098;-74
2022/10/04 06:59:02;;;;;;;7.38;1.48;;;13.20;99.90;;;;;;5042442;28;20492;-74
2022/10/04 07:01:30;;;;;;;3.10;1.05;;;13.20;99.90;;;;;;5046489;28;20025;-76
2022/10/04 07:04:20;;;;;;;3.78;1.58;;;13.10;99.90;;;;;;5046097;28;20110;-75
2022/10/04 07:10:32;;;;;;;4.95;1.10;;;13.30;99.90;;;;;;5001842;28;20037;-74
2022/10/04 07:13:11;;;;;;;11.07;1.40;;;13.20;99.90;;;;;;5004146;28;20101;-74
2022/10/04 07:15:59;;;;;;;4.05;1.40;;;13.40;99.90;;;;;;5027870;28;20029;-73
2022/10/04 07:18:31;;;;;;;7.22;1.70;;;13.50;99.90;;;;;;5042181;28;20037;-75
2022/10/04 07:21:11;;;;;;;3.83;1.80;;;13.40;99.90;;;;;;5036016;28;20017;-75
2022/10/04 07:23:52;;;;;;;6.60;2.00;;;13.70;99.90;;;;;;5042139;28;20017;-75
2022/10/04 07:26:27;;;;;;;2.60;1.17;;;13.80;99.90;;;;;;5037788;28;20090;-75
2022/10/04 07:31:43;;;;;;;6.10;1.38;;;14.00;99.90;;;;;;5046824;28;20114;-74
2022/10/04 07:34:53;;;;;;;2.72;1.48;;;14.00;99.90;;;;;;5038015;28;20037;-74
2022/10/04 07:37:19;;;;;;;2.47;1.13;;;13.90;99.90;;;;;;5018997;28;20048;-75
2022/10/04 07:39:53;;;;;;;3.20;1.10;;;13.80;99.90;;;;;;5046459;28;20033;-75
2022/10/04 07:42:27;;;;;;;2.80;1.30;;;13.80;99.90;;;;;;5047012;28;20029;-74
2022/10/04 07:45:04;;;;;;;4.90;1.38;;;13.90;99.90;;;;;;5031174;28;20494;-75
2022/10/04 07:47:31;;;;;;;1.77;1.15;;;13.90;99.90;;;;;;5044990;28;20029;-74
2022/10/04 07:49:57;;;;;;;2.85;1.27;;;13.90;99.90;;;;;;5047119;28;20112;-75
2022/10/04 07:52:49;;;;;;;7.20;1.75;;;13.70;99.90;;;;;;5046217;28;20113;-74
2022/10/04 07:55:28;;;;;;;4.10;2.05;;;13.70;99.90;;;;;;5031366;28;20064;-75
2022/10/04 07:58:11;;;;;;;5.22;1.67;;;13.50;99.90;;;;;;5043523;28;20492;-74
2022/10/04 08:01:04;;;;;;;7.90;1.80;;;13.70;99.90;;;;;;5045879;28;20029;-75
2022/10/04 08:03:45;;;;;;;2.65;1.85;;;13.70;99.90;;;;;;5031249;28;20021;-75
2022/10/04 08:06:29;;;;;;;6.30;1.50;;;13.60;99.90;;;;;;5039229;28;20036;-74
2022/10/04 08:09:16;;;;;;;3.25;1.50;;;13.60;99.90;;;;;;5034945;28;20993;-74
2022/10/04 08:12:00;;;;;;;4.35;1.70;;;13.70;99.90;;;;;;5036749;28;20037;-75
2022/10/04 08:14:53;;;;;;;3.95;1.70;;;13.80;99.90;;;;;;5031281;28;20480;-74
2022/10/04 08:17:54;;;;;;;3.13;1.95;;;14.00;99.90;;;;;;5035878;28;20048;-74
2022/10/04 08:20:57;;;;;;;4.07;1.85;;;14.30;99.90;;;;;;5043327;28;20124;-74
2022/10/04 08:23:47;;;;;;;4.68;2.17;;;14.70;99.90;;;;;;5033994;28;20114;-75
2022/10/04 08:26:21;;;;;;;2.40;1.30;;;15.00;99.90;;;;;;5041729;28;20098;-74
2022/10/04 08:32:29;;;;;;;2.40;1.55;;;14.70;99.90;;;;;;5047829;28;20056;-75
2022/10/04 08:35:15;;;;;;;4.05;1.80;;;14.40;99.90;;;;;;5048970;28;20040;-75
2022/10/04 08:38:02;;;;;;;4.43;1.95;;;14.50;99.90;;;;;;5049202;28;20037;-75
2022/10/04 08:40:48;;;;;;;5.38;1.95;;;14.70;99.90;;;;;;5040344;28;20029;-74
2022/10/04 08:43:39;;;;;;;3.70;2.03;;;15.30;99.90;;;;;;5044603;28;20115;-74
2022/10/04 08:46:42;;;;;;;3.88;2.40;;;15.50;99.90;;;;;;5036448;28;20033;-74
2022/10/04 08:49:25;;;;;;;5.18;1.85;;;15.70;99.90;;;;;;5034190;28;20029;-73
2022/10/04 08:52:23;;;;;;;3.85;1.88;;;15.50;99.90;;;;;;5038487;28;20135;-73
2022/10/04 08:55:15;;;;;;;3.58;1.77;;;15.60;99.90;;;;;;5047294;28;20499;-80
2022/10/04 08:58:12;;;;;;;4.32;2.05;;;16.10;99.90;;;;;;5046188;28;20078;-74
2022/10/04 09:00:53;;;;;;;4.07;2.10;;;16.20;99.90;;;;;;5041980;28;20040;-75
2022/10/04 09:03:40;;;;;;;7.80;2.45;;;16.50;99.90;;;;;;5036409;28;20083;-74
2022/10/04 09:06:53;;;;;;;7.13;2.63;;;16.30;99.90;;;;;;5031443;28;20021;-74
2022/10/04 09:10:00;;;;;;;3.72;1.58;;;15.90;99.90;;;;;;5035446;28;20333;-74
2022/10/04 09:12:43;;;;;;;3.47;1.70;;;15.90;99.90;;;;;;5043516;28;20036;-74
2022/10/04 09:15:41;;;;;;;2.38;2.05;;;16.10;99.90;;;;;;5041561;28;20043;-76
2022/10/04 09:18:51;;;;;;;6.38;2.00;;;16.60;99.90;;;;;;5030813;28;20035;-76
2022/10/04 09:21:39;;;;;;;4.15;1.55;;;17.40;99.90;;;;;;5044697;28;20030;-76
2022/10/04 09:24:16;;;;;;;3.20;1.90;;;16.90;99.90;;;;;;5046501;28;20028;-76
2022/10/04 09:26:49;;;;;;;4.05;2.20;;;17.00;99.90;;;;;;5032715;28;20021;-76
2022/10/04 09:29:31;;;;;;;5.00;2.13;;;17.00;99.90;;;;;;5029229;28;20029;-76
2022/10/04 09:32:13;;;;;;;2.28;1.90;;;17.00;99.90;;;;;;5029263;28;20033;-76
2022/10/04 09:35:12;;;;;;;2.15;1.38;;;16.80;99.90;;;;;;5045945;28;20108;-76
2022/10/04 09:38:15;;;;;;;2.63;1.55;;;16.40;99.90;;;;;;5039744;28;20076;-77
2022/10/04 09:41:20;;;;;;;5.15;1.40;;;16.40;99.90;;;;;;5049076;28;20037;-76
2022/10/04 09:44:15;;;;;;;3.33;1.50;;;16.50;99.90;;;;;;5029402;28;20045;-76
2022/10/04 09:47:06;;;;;;;1.90;1.40;;;16.60;99.90;;;;;;5036642;28;20033;-76
2022/10/04 09:49:53;;;;;;;4.72;1.83;;;17.20;99.90;;;;;;5028853;28;20029;-76
2022/10/04 09:52:21;;;;;;;4.25;1.75;;;17.80;99.90;;;;;;5028589;28;20526;-76
2022/10/04 09:55:32;;;;;;;6.03;1.88;;;18.20;99.90;;;;;;5039960;28;20018;-77
2022/10/04 09:58:16;;;;;;;5.22;1.65;;;18.10;99.90;;;;;;5034790;28;20044;-76
2022/10/04 10:00:58;;;;;;;3.08;1.45;;;18.20;99.90;;;;;;5048792;28;20375;-77
2022/10/04 10:03:46;;;;;;;5.45;1.75;;;19.10;98.10;;;;;;5048797;28;20032;-77
2022/10/04 10:06:40;;;;;;;4.53;1.40;;;19.00;95.90;;;;;;5048506;28;20036;-77
2022/10/04 10:09:20;;;;;;;6.45;1.67;;;19.00;97.50;;;;;;5046930;28;20476;-77
2022/10/04 10:15:28;;;;;;;6.45;1.90;;;20.00;93.30;;;;;;5028693;28;20175;-77
2022/10/04 10:18:25;;;;;;;3.58;1.25;;;20.00;93.50;;;;;;5028910;28;20179;-76
2022/10/04 10:21:02;;;;;;;3.50;1.40;;;19.80;91.60;;;;;;5032591;28;20029;-77
2022/10/04 10:23:50;;;;;;;1.95;1.17;;;19.50;92.30;;;;;;5048268;28;20052;-76
2022/10/04 10:26:41;;;;;;;2.08;1.48;;;19.30;92.10;;;;;;5034351;28;20441;-76
2022/10/04 10:29:22;;;;;;;;;;;19.20;92.70;;;;;;5028543;28;20051;-77
2022/10/04 10:31:58;;;;;;;1.58;1.02;;;19.60;91.20;;;;;;5035909;28;19920;-77
2022/10/04 10:34:45;;;;;;;1.58;1.10;;;19.70;90.40;;;;;;5048046;28;20064;-77
2022/10/04 10:37:26;;;;;;;1.15;1.00;;;20.00;90.00;;;;;;5047683;28;20468;-77
2022/10/04 10:40:12;;;;;;;2.83;1.38;;;19.70;90.00;;;;;;5048209;28;20384;-76
2022/10/04 10:42:48;;;;;;;1.77;1.00;;;19.30;90.60;;;;;;5044436;28;20119;-77
2022/10/04 10:45:37;;;;;;;2.08;1.00;;;19.50;92.20;;;;;;5048177;28;20036;-76
2022/10/04 10:48:37;;;;;;;4.82;1.65;;;18.90;92.00;;;;;;5047826;28;20434;-76
2022/10/04 10:51:19;;;;;;;5.13;1.30;;;18.40;93.30;;;;;;5030602;28;20049;-76
2022/10/04 10:54:05;;;;;;;4.82;1.10;;;18.30;94.30;;;;;;5045026;28;20033;-77
2022/10/04 10:56:44;;;;;;;4.90;1.30;;;18.60;95.50;;;;;;5036039;28;20032;-77
2022/10/04 10:59:36;;;;;;;4.85;1.17;;;19.50;92.10;;;;;;5043367;28;20034;-77
2022/10/04 11:02:24;;;;;;;3.55;1.50;;;21.70;88.80;;;;;;5027929;28;20033;-77
2022/10/04 11:05:14;;;;;;;3.17;1.13;;;21.10;83.70;;;;;;5043913;28;20442;-77
2022/10/04 11:07:50;;;;;;;5.97;2.00;;;19.60;89.90;;;;;;5003726;28;20071;-77
2022/10/04 11:10:53;;;;;;;3.08;1.30;;;21.50;87.10;;;;;;5047860;28;20543;-76
2022/10/04 11:13:47;;;;;;;2.95;1.35;;;21.50;82.10;;;;;;5048080;28;20036;-77
2022/10/04 11:16:46;;;;;;;3.65;1.55;;;21.20;83.80;;;;;;5041258;28;20025;-77
2022/10/04 11:19:32;;;;;;;2.03;1.38;;;20.10;87.30;;;;;;5047462;28;20044;-77
2022/10/04 11:22:22;;;;;;;3.33;1.42;;;19.20;90.80;;;;;;5048153;28;20028;-77
2022/10/04 11:25:24;;;;;;;4.57;1.30;;;19.00;92.10;;;;;;5048098;28;20036;-77
2022/10/04 11:28:01;;;;;;;2.95;1.30;;;21.10;86.60;;;;;;5045481;28;20029;-77
2022/10/04 11:31:01;;;;;;;4.75;1.42;;;21.70;81.50;;;;;;5035242;28;20060;-76
2022/10/04 11:33:57;;;;;;;3.38;1.40;;;20.80;86.90;;;;;;5046140;28;20040;-77
2022/10/04 11:36:38;;;;;;;3.28;1.35;;;20.70;86.50;;;;;;5047306;28;20025;-77
2022/10/04 11:39:43;;;;;;;3.75;1.60;;;20.40;88.20;;;;;;5046956;28;20036;-78
2022/10/04 11:42:37;;;;;;;4.90;1.40;;;20.80;84.80;;;;;;5037282;28;20036;-76
2022/10/04 11:45:32;;;;;;;4.00;1.50;;;20.30;86.60;;;;;;5047860;28;20494;-77
2022/10/04 11:48:19;;;;;;;5.72;1.27;;;20.20;86.20;;;;;;5029190;28;20189;-76
2022/10/04 11:51:03;;;;;;;3.38;1.40;;;20.50;86.60;;;;;;5032271;28;20500;-77
2022/10/04 11:54:10;;;;;;;2.88;1.60;;;20.50;86.60;;;;;;5038095;28;20086;-76
2022/10/04 11:56:55;;;;;;;4.35;1.73;;;19.70;85.90;;;;;;5047579;28;20456;-77
2022/10/04 11:59:44;;;;;;;3.42;1.63;;;19.50;89.10;;;;;;5047319;28;20393;-77
2022/10/04 12:02:45;;;;;;;3.58;1.60;;;20.80;85.30;;;;;;5047434;28;20029;-77
2022/10/04 12:05:41;;;;;;;5.35;2.00;;;20.50;85.80;;;;;;5045280;28;20549;-77
2022/10/04 12:08:36;;;;;;;3.97;1.63;;;20.50;85.00;;;;;;5036665;28;20564;-76
2022/10/04 12:12:35;;;;;;;5.45;1.15;;;19.70;87.20;;;;;;5028012;28;20055;-76
2022/10/04 12:14:40;;;;;;;7.40;1.50;;;19.60;90.10;;;;;;5035664;28;20052;-76
2022/10/04 12:17:45;;;;;;;5.80;1.80;;;20.60;84.10;;;;;;5051123;28;20562;-76
2022/10/04 12:20:48;;;;;;;2.30;1.20;;;22.10;82.40;;;;;;5050688;28;20476;-76
2022/10/04 12:23:29;;;;;;;4.57;1.33;;;25.30;72.70;;;;;;5031686;28;20524;-77
2022/10/04 12:26:13;;;;;;;2.50;1.40;;;27.90;58.90;;;;;;5047421;28;20091;-77
2022/10/04 12:28:57;;;;;;;3.47;1.65;;;27.30;56.70;;;;;;5050412;28;20484;-77
2022/10/04 12:31:29;;;;;;;3.28;1.20;;;24.30;63.90;;;;;;5050268;28;20088;-77
2022/10/04 12:34:13;;;;;;;1.10;1.00;;;22.70;68.00;;;;;;5050626;28;20025;-77
2022/10/04 12:37:16;;;;;;;2.58;1.30;;;21.80;71.70;;;;;;5050009;28;20392;-77
2022/10/04 12:40:05;;;;;;;1.98;1.10;;;21.80;74.80;;;;;;5039614;28;20511;-77
2022/10/04 12:43:08;;;;;;;3.35;1.00;;;22.70;73.20;;;;;;5042767;28;20029;-77
2022/10/04 12:45:58;;;;;;;2.83;1.42;;;22.30;71.10;;;;;;5033762;28;20021;-76
2022/10/04 12:48:41;;;;;;;4.03;1.17;;;23.00;70.70;;;;;;5050469;28;20036;-76
2022/10/04 12:51:36;;;;;;;3.28;1.33;;;23.10;71.40;;;;;;5032192;28;20030;-76
2022/10/04 12:54:11;;;;;;;1.67;1.00;;;23.20;68.80;;;;;;5030054;28;20034;-76
2022/10/04 12:57:00;;;;;;;7.10;1.77;;;23.40;67.00;;;;;;5037154;28;20064;-76
2022/10/04 12:59:51;;;;;;;6.50;1.08;;;23.50;65.80;;;;;;5050116;28;20025;-77
2022/10/04 13:02:52;;;;;;;2.67;1.10;;;23.00;67.40;;;;;;5050130;28;20064;-77
2022/10/04 13:05:32;;;;;;;1.88;1.10;;;23.10;68.50;;;;;;5050053;28;20033;-77
2022/10/04 13:08:29;;;;;;;2.30;1.08;;;23.60;65.70;;;;;;5047101;28;20040;-77
2022/10/04 13:11:23;;;;;;;2.80;1.20;;;23.60;64.40;;;;;;5048400;28;20029;-76
2022/10/04 13:14:15;;;;;;;1.75;1.20;;;22.80;68.20;;;;;;5047570;28;20033;-77
2022/10/04 13:16:57;;;;;;;1.73;1.30;;;22.30;69.30;;;;;;5048884;28;20029;-76
2022/10/04 13:19:49;;;;;;;4.10;1.20;;;21.30;71.30;;;;;;5049879;28;20029;-77
2022/10/04 13:22:39;;;;;;;4.30;1.17;;;21.20;72.80;;;;;;5049110;28;20021;-76
2022/10/04 13:25:23;;;;;;;5.43;1.50;;;22.00;71.00;;;;;;5047395;28;20064;-77
2022/10/04 13:28:19;;;;;;;2.00;1.00;;;22.70;69.30;;;;;;5049337;28;20503;-77
2022/10/04 13:30:49;;;;;;;1.33;0.95;;;22.70;69.30;;;;;;5031313;28;20056;-76
2022/10/04 13:33:25;;;;;;;2.13;1.20;;;24.50;63.70;;;;;;5047305;28;20024;-76
2022/10/04 13:35:53;;;;;;;4.63;1.20;;;24.60;61.40;;;;;;5049459;28;20555;-76
2022/10/04 13:38:42;;;;;;;3.00;1.00;;;24.00;64.60;;;;;;5049101;28;20025;-76
2022/10/04 13:41:36;;;;;;;4.35;1.20;;;23.60;64.20;;;;;;5046053;28;20031;-76
2022/10/04 13:44:26;;;;;;;1.77;1.00;;;22.60;65.60;;;;;;5035659;28;20074;-77
2022/10/04 13:47:26;;;;;;;3.05;1.00;;;24.00;63.70;;;;;;5048986;28;20029;-77
2022/10/04 13:50:22;;;;;;;7.05;1.90;;;23.90;64.00;;;;;;5036765;28;20029;-76
2022/10/04 13:59:22;;;;;;;2.03;1.08;;;23.90;66.00;;;;;;5034303;28;20084;-76
2022/10/04 14:02:24;;;;;;;1.88;1.27;;;27.70;57.50;;;;;;5035720;28;20491;-76
2022/10/04 14:05:22;;;;;;;3.17;1.02;;;25.90;57.20;;;;;;5048911;28;20155;-77
2022/10/04 14:08:14;;;;;;;2.50;1.20;;;26.80;57.70;;;;;;5049195;28;20181;-77
2022/10/04 14:11:01;;;;;;;4.82;1.17;;;30.70;49.00;;;;;;5048781;28;20045;-76
2022/10/04 14:13:39;;;;;;;3.28;1.27;;;33.30;44.30;;;;;;5047437;28;20033;-75
2022/10/04 14:16:49;;;;;;;3.70;0.75;;;34.10;42.10;;;;;;5039063;28;20040;-76
2022/10/04 14:19:58;;;;;;;6.03;1.20;;;34.00;40.70;;;;;;5038892;28;20106;-72
2022/10/04 14:22:42;;;;;;;2.35;1.30;;;33.90;41.30;;;;;;5035355;28;20598;-73
2022/10/04 14:25:52;;;;;;;1.98;0.93;;;33.50;39.80;;;;;;5030319;28;20086;-73